createdAt,value
2019-05-18T00:01:32.104Z,2.77
2019-05-18T00:04:00.951Z,2.65
2019-05-18T00:06:29.916Z,2.80
2019-05-18T00:08:58.718Z,2.42
2019-05-18T00:11:27.477Z,2.08
2019-05-18T00:13:56.303Z,2.20
2019-05-18T00:16:24.975Z,2.42
2019-05-18T00:18:53.799Z,2.45
2019-05-18T00:21:22.540Z,2.80
2019-05-18T00:23:51.375Z,2.50
2019-05-18T00:26:20.199Z,2.85
2019-05-18T00:28:48.880Z,2.47
2019-05-18T00:31:17.697Z,2.42
2019-05-18T00:33:47.871Z,2.25
2019-05-18T00:36:16.702Z,2.08
2019-05-18T00:38:45.451Z,2.72
2019-05-18T00:41:14.273Z,2.80
2019-05-18T00:43:43.010Z,2.47
2019-05-18T00:46:11.821Z,2.27
2019-05-18T00:48:40.558Z,2.33
2019-05-18T00:51:09.384Z,2.70
2019-05-18T00:53:38.073Z,2.27
2019-05-18T00:56:06.931Z,2.50
2019-05-18T00:58:35.749Z,2.02
2019-05-18T01:01:04.800Z,1.90
2019-05-18T01:03:33.482Z,2.60
2019-05-18T01:06:02.242Z,2.30
2019-05-18T01:08:31.020Z,2.00
2019-05-18T01:10:59.836Z,2.30
2019-05-18T01:13:28.580Z,2.40
2019-05-18T01:15:57.314Z,2.00
2019-05-18T01:18:25.998Z,1.87
2019-05-18T01:20:54.833Z,2.27
2019-05-18T01:23:23.574Z,2.67
2019-05-18T01:25:52.416Z,2.02
2019-05-18T01:28:21.149Z,3.10
2019-05-18T01:30:49.902Z,2.15
2019-05-18T01:33:18.575Z,2.10
2019-05-18T01:35:47.323Z,2.15
2019-05-18T01:38:15.994Z,2.40
2019-05-18T01:40:44.742Z,2.12
2019-05-18T01:43:13.522Z,2.25
2019-05-18T01:45:42.278Z,2.02
2019-05-18T01:48:13.625Z,2.08
2019-05-18T01:50:41.474Z,1.80
2019-05-18T01:53:10.251Z,2.25
2019-05-18T01:55:38.992Z,1.87
2019-05-18T01:58:07.880Z,2.00
2019-05-18T02:00:36.627Z,2.45
2019-05-18T02:03:05.474Z,1.70
2019-05-18T02:05:34.722Z,1.80
2019-05-18T02:08:03.402Z,2.33
2019-05-18T02:10:32.109Z,2.20
2019-05-18T02:13:00.816Z,2.47
2019-05-18T02:15:29.585Z,2.52
2019-05-18T02:17:58.326Z,2.30
2019-05-18T02:20:27.140Z,1.87
2019-05-18T02:22:55.951Z,2.10
2019-05-18T02:25:24.629Z,2.58
2019-05-18T02:27:53.388Z,2.00
2019-05-18T02:30:22.134Z,2.77
2019-05-18T02:32:50.942Z,2.05
2019-05-18T02:35:19.683Z,1.90
2019-05-18T02:37:48.555Z,2.50
2019-05-18T02:40:17.341Z,1.95
2019-05-18T02:42:46.083Z,1.90
2019-05-18T02:45:14.933Z,2.33
2019-05-18T02:47:43.771Z,2.35
2019-05-18T02:50:12.821Z,2.10
2019-05-18T02:52:41.575Z,2.05
2019-05-18T02:55:10.325Z,2.12
2019-05-18T02:57:39.138Z,2.52
2019-05-18T03:00:11.372Z,2.22
2019-05-18T03:02:40.182Z,2.42
2019-05-18T03:05:09.307Z,1.95
2019-05-18T03:07:37.997Z,1.80
2019-05-18T03:10:08.236Z,1.87
2019-05-18T03:12:36.983Z,2.40
2019-05-18T03:15:07.050Z,2.75
2019-05-18T03:17:35.716Z,2.08
2019-05-18T03:20:06.899Z,2.30
2019-05-18T03:22:35.646Z,2.10
2019-05-18T03:25:07.745Z,2.33
2019-05-18T03:27:36.514Z,2.60
2019-05-18T03:30:09.886Z,2.50
2019-05-18T03:32:38.747Z,2.72
2019-05-18T03:35:07.910Z,2.30
2019-05-18T03:37:36.671Z,2.17
2019-05-18T03:40:08.442Z,2.25
2019-05-18T03:42:37.283Z,2.50
2019-05-18T03:45:06.192Z,2.17
2019-05-18T03:47:34.940Z,2.05
2019-05-18T03:50:04.859Z,2.85
2019-05-18T03:52:33.593Z,2.45
2019-05-18T03:55:02.346Z,2.77
2019-05-18T03:57:31.025Z,2.92
2019-05-18T04:00:00.446Z,3.27
2019-05-18T04:02:29.262Z,3.65
2019-05-18T04:04:58.099Z,3.52
2019-05-18T04:07:26.914Z,3.25
2019-05-18T04:09:55.656Z,3.80
2019-05-18T04:12:24.402Z,3.52
2019-05-18T04:14:53.240Z,4.03
2019-05-18T04:17:21.912Z,3.85
2019-05-18T04:19:50.660Z,2.92
2019-05-18T04:22:19.470Z,3.05
2019-05-18T04:24:48.219Z,3.05
2019-05-18T04:27:16.983Z,3.25
2019-05-18T04:29:45.761Z,2.60
2019-05-18T04:32:14.579Z,2.42
2019-05-18T04:34:43.273Z,2.30
2019-05-18T04:37:12.023Z,2.60
2019-05-18T04:39:40.698Z,2.52
2019-05-18T04:42:09.446Z,2.87
2019-05-18T04:44:38.211Z,3.00
2019-05-18T04:47:07.007Z,3.17
2019-05-18T04:49:35.689Z,2.95
2019-05-18T04:52:04.489Z,2.67
2019-05-18T04:54:33.251Z,3.05
2019-05-18T04:57:03.736Z,2.70
2019-05-18T04:59:32.440Z,2.95
2019-05-18T05:02:01.194Z,2.95
2019-05-18T05:04:29.870Z,2.72
2019-05-18T05:06:58.629Z,3.08
2019-05-18T05:09:27.297Z,2.90
2019-05-18T05:11:56.051Z,3.17
2019-05-18T05:14:24.872Z,2.72
2019-05-18T05:17:00.393Z,3.22
2019-05-18T05:19:29.111Z,3.00
2019-05-18T05:21:57.963Z,3.42
2019-05-18T05:24:26.716Z,3.25
2019-05-18T05:26:56.099Z,2.77
2019-05-18T05:31:53.282Z,2.60
2019-05-18T05:34:23.186Z,3.33
2019-05-18T05:36:52.209Z,3.70
2019-05-18T05:39:21.579Z,3.50
2019-05-18T05:44:19.522Z,3.30
2019-05-18T05:49:19.565Z,3.90
2019-05-18T05:51:48.570Z,4.17
2019-05-18T05:54:17.399Z,4.78
2019-05-18T05:56:46.428Z,3.52
2019-05-18T05:59:16.602Z,4.40
2019-05-18T06:01:47.450Z,3.87
2019-05-18T06:04:19.276Z,3.37
2019-05-18T06:06:48.826Z,3.50
2019-05-18T06:09:18.394Z,2.92
2019-05-18T06:11:47.179Z,3.60
2019-05-18T06:14:15.934Z,3.10
2019-05-18T06:16:44.770Z,3.85
2019-05-18T06:19:14.110Z,4.00
2019-05-18T06:24:10.757Z,3.87
2019-05-18T06:26:39.574Z,4.42
2019-05-18T06:29:08.258Z,4.55
2019-05-18T06:31:37.001Z,3.98
2019-05-18T06:34:05.752Z,4.22
2019-05-18T06:36:34.482Z,3.90
2019-05-18T06:39:05.013Z,4.70
2019-05-18T06:41:33.778Z,4.22
2019-05-18T06:44:02.828Z,4.30
2019-05-18T06:46:31.562Z,5.53
2019-05-18T06:49:01.223Z,5.10
2019-05-18T06:51:29.912Z,4.83
2019-05-18T06:53:58.744Z,3.85
2019-05-18T06:56:28.543Z,3.75
2019-05-18T06:58:58.151Z,7.53
2019-05-18T07:01:27.037Z,4.53
2019-05-18T07:03:57.909Z,5.70
2019-05-18T07:06:26.664Z,5.33
2019-05-18T07:08:55.949Z,4.00
2019-05-18T07:13:52.697Z,4.45
2019-05-18T07:16:21.518Z,3.90
2019-05-18T07:18:50.255Z,4.35
2019-05-18T07:21:22.275Z,4.53
2019-05-18T07:23:49.534Z,3.87
2019-05-18T07:26:18.352Z,4.50
2019-05-18T07:28:47.099Z,4.85
2019-05-18T07:31:15.930Z,4.00
2019-05-18T07:33:44.607Z,3.60
2019-05-18T07:36:13.459Z,3.90
2019-05-18T07:38:42.201Z,3.75
2019-05-18T07:41:11.030Z,4.50
2019-05-18T07:43:39.779Z,4.30
2019-05-18T07:46:08.912Z,5.00
2019-05-18T07:51:05.718Z,5.12
2019-05-18T07:53:34.524Z,3.90
2019-05-18T07:56:03.278Z,4.35
2019-05-18T07:58:32.047Z,4.25
2019-05-18T08:01:00.709Z,6.42
2019-05-18T08:03:29.474Z,4.12
2019-05-18T08:05:58.141Z,4.40
2019-05-18T08:08:26.895Z,4.78
2019-05-18T08:10:55.647Z,4.95
2019-05-18T08:13:24.534Z,4.50
2019-05-18T08:15:53.160Z,4.90
2019-05-18T08:18:22.039Z,4.90
2019-05-18T08:20:50.806Z,4.80
2019-05-18T08:23:19.490Z,5.03
2019-05-18T08:25:48.273Z,4.72
2019-05-18T08:28:17.027Z,4.28
2019-05-18T08:30:45.850Z,4.00
2019-05-18T08:33:14.611Z,4.72
2019-05-18T08:35:43.385Z,4.08
2019-05-18T08:38:12.125Z,4.33
2019-05-18T08:40:40.864Z,4.47
2019-05-18T08:43:09.606Z,4.40
2019-05-18T08:45:38.424Z,4.20
2019-05-18T08:48:07.183Z,7.92
2019-05-18T08:50:35.942Z,5.03
2019-05-18T08:53:04.697Z,4.87
2019-05-18T08:55:33.542Z,4.47
2019-05-18T08:58:02.256Z,4.15
2019-05-18T09:00:31.046Z,5.05
2019-05-18T09:02:59.808Z,4.28
2019-05-18T09:05:28.615Z,4.42
2019-05-18T09:07:57.383Z,4.85
2019-05-18T09:10:26.186Z,4.40
2019-05-18T09:12:54.928Z,5.12
2019-05-18T09:15:23.750Z,4.05
2019-05-18T09:17:52.434Z,4.08
2019-05-18T09:20:21.209Z,4.62
2019-05-18T09:22:49.965Z,4.80
2019-05-18T09:25:18.782Z,4.37
2019-05-18T09:27:47.490Z,4.10
2019-05-18T09:30:17.302Z,4.60
2019-05-18T09:32:45.975Z,3.92
2019-05-18T09:35:14.919Z,3.83
2019-05-18T09:40:11.725Z,4.50
2019-05-18T09:42:40.528Z,3.55
2019-05-18T09:45:11.051Z,4.65
2019-05-18T09:47:39.815Z,4.87
2019-05-18T09:50:09.022Z,4.17
2019-05-18T09:52:46.180Z,3.52
2019-05-18T09:55:08.931Z,4.25
2019-05-18T09:57:37.785Z,6.55
2019-05-18T10:02:35.959Z,4.08
2019-05-18T10:07:32.958Z,3.80
2019-05-18T10:12:29.658Z,4.17
2019-05-18T10:14:58.482Z,4.15
2019-05-18T10:19:55.142Z,4.00
2019-05-18T10:22:23.881Z,4.42
2019-05-18T10:24:52.647Z,4.22
2019-05-18T10:27:21.394Z,4.37
2019-05-18T10:29:50.170Z,4.25
2019-05-18T10:32:18.965Z,3.70
2019-05-18T10:37:15.611Z,4.50
2019-05-18T10:39:44.371Z,4.35
2019-05-18T10:42:13.118Z,4.28
2019-05-18T10:44:41.859Z,4.20
2019-05-18T10:47:10.670Z,4.58
2019-05-18T10:52:13.082Z,5.10
2019-05-18T10:57:12.737Z,4.10
2019-05-18T11:02:09.558Z,5.15
2019-05-18T11:04:38.423Z,4.15
2019-05-18T11:07:07.129Z,3.60
2019-05-18T11:12:03.877Z,4.37
2019-05-18T11:14:32.598Z,4.78
2019-05-18T11:17:01.363Z,3.90
2019-05-18T11:19:30.041Z,3.67
2019-05-18T11:24:26.770Z,3.67
2019-05-18T11:26:55.583Z,3.90
2019-05-18T11:29:24.796Z,4.28
2019-05-18T11:32:29.762Z,4.10
2019-05-18T11:34:58.510Z,4.10
2019-05-18T11:40:13.667Z,4.03
2019-05-18T11:42:42.501Z,3.70
2019-05-18T11:45:12.731Z,3.83
2019-05-18T11:47:41.523Z,3.10
2019-05-18T11:50:11.239Z,4.50
2019-05-18T11:52:40.136Z,3.77
2019-05-18T11:55:09.260Z,4.08
2019-05-18T11:57:38.133Z,4.25
2019-05-18T12:00:08.834Z,3.95
2019-05-18T12:02:37.634Z,3.62
2019-05-18T12:05:07.812Z,3.40
2019-05-18T12:07:36.612Z,3.65
2019-05-18T12:10:10.216Z,3.10
2019-05-18T12:12:39.034Z,4.00
2019-05-18T12:15:18.770Z,3.37
2019-05-18T12:17:47.549Z,3.25
2019-05-18T12:20:17.185Z,3.22
2019-05-18T12:22:45.998Z,3.45
2019-05-18T12:25:14.844Z,3.27
2019-05-18T12:27:43.724Z,3.10
2019-05-18T12:30:13.213Z,3.95
2019-05-18T12:32:41.894Z,3.10
2019-05-18T12:35:11.099Z,3.05
2019-05-18T12:37:39.869Z,4.00
2019-05-18T12:40:10.333Z,3.20
2019-05-18T12:42:39.098Z,3.50
2019-05-18T12:45:09.043Z,3.00
2019-05-18T12:47:37.773Z,3.60
2019-05-18T12:50:10.186Z,3.47
2019-05-18T12:52:38.934Z,3.40
2019-05-18T12:55:25.742Z,3.67
2019-05-18T12:58:12.364Z,3.83
2019-05-18T13:00:41.226Z,3.50
2019-05-18T13:03:09.982Z,3.15
2019-05-18T13:05:38.781Z,2.98
2019-05-18T13:08:07.539Z,3.80
2019-05-18T13:10:37.125Z,3.45
2019-05-18T13:13:05.799Z,3.37
2019-05-18T13:15:34.549Z,3.47
2019-05-18T13:18:03.277Z,3.12
2019-05-18T13:20:32.095Z,3.30
2019-05-18T13:23:00.902Z,3.30
2019-05-18T13:25:29.722Z,2.50
2019-05-18T13:27:58.431Z,3.10
2019-05-18T13:30:27.434Z,3.22
2019-05-18T13:32:56.256Z,3.27
2019-05-18T13:35:25.040Z,3.15
2019-05-18T13:37:53.796Z,3.33
2019-05-18T13:40:23.135Z,3.33
2019-05-18T13:42:51.792Z,3.30
2019-05-18T13:45:20.939Z,3.08
2019-05-18T13:47:49.717Z,2.77
2019-05-18T13:50:19.034Z,3.17
2019-05-18T13:52:47.840Z,3.10
2019-05-18T13:55:16.847Z,2.72
2019-05-18T13:57:45.590Z,2.50
2019-05-18T14:00:15.553Z,3.20
2019-05-18T14:02:44.410Z,2.90
2019-05-18T14:05:13.531Z,3.45
2019-05-18T14:07:42.327Z,2.60
2019-05-18T14:10:12.673Z,2.67
2019-05-18T14:12:41.650Z,2.90
2019-05-18T14:15:11.966Z,2.70
2019-05-18T14:17:40.778Z,3.08
2019-05-18T14:20:09.743Z,2.70
2019-05-18T14:22:38.592Z,3.00
2019-05-18T14:25:18.891Z,2.58
2019-05-18T14:27:38.582Z,2.83
2019-05-18T14:30:08.849Z,2.90
2019-05-18T14:32:37.648Z,2.60
2019-05-18T14:35:09.539Z,3.30
2019-05-18T14:37:38.376Z,3.00
2019-05-18T14:40:10.016Z,2.83
2019-05-18T14:42:38.857Z,3.02
2019-05-18T14:45:08.898Z,2.72
2019-05-18T14:47:37.628Z,2.67
2019-05-18T14:50:07.172Z,3.37
2019-05-18T14:52:36.069Z,2.90
2019-05-18T14:55:05.929Z,3.02
2019-05-18T14:57:34.742Z,2.72
2019-05-18T15:00:03.789Z,2.40
2019-05-18T15:02:32.594Z,2.87
2019-05-18T15:05:01.444Z,3.17
2019-05-18T15:07:30.456Z,2.75
2019-05-18T15:09:59.271Z,3.15
2019-05-18T15:12:28.006Z,3.00
2019-05-18T15:14:56.750Z,2.75
2019-05-18T15:17:25.573Z,2.62
2019-05-18T15:19:54.323Z,2.65
2019-05-18T15:22:23.086Z,2.20
2019-05-18T15:24:51.897Z,3.10
2019-05-18T15:27:20.641Z,2.87
2019-05-18T15:29:49.453Z,3.60
2019-05-18T15:32:18.131Z,2.90
2019-05-18T15:34:46.885Z,2.50
2019-05-18T15:37:15.558Z,2.60
2019-05-18T15:39:44.305Z,2.67
2019-05-18T15:42:13.047Z,2.58
2019-05-18T15:44:41.805Z,2.65
2019-05-18T15:47:10.546Z,2.70
2019-05-18T15:49:39.292Z,2.55
2019-05-18T15:52:08.066Z,2.60
2019-05-18T15:54:36.860Z,2.65
2019-05-18T15:57:05.602Z,2.20
2019-05-18T15:59:34.367Z,2.65
2019-05-18T16:02:06.493Z,2.52
2019-05-18T16:04:33.521Z,3.00
2019-05-18T16:07:02.340Z,3.00
2019-05-18T16:09:31.163Z,2.67
2019-05-18T16:11:59.857Z,2.92
2019-05-18T16:14:28.652Z,3.95
2019-05-18T16:16:57.361Z,2.80
2019-05-18T16:19:26.181Z,2.80
2019-05-18T16:21:54.860Z,2.62
2019-05-18T16:24:23.613Z,2.70
2019-05-18T16:26:52.291Z,3.08
2019-05-18T16:29:21.086Z,2.95
2019-05-18T16:31:49.851Z,2.80
2019-05-18T16:34:18.614Z,2.90
2019-05-18T16:36:47.421Z,2.85
2019-05-18T16:39:16.157Z,3.00
2019-05-18T16:41:44.903Z,4.10
2019-05-18T16:44:13.646Z,3.70
2019-05-18T16:46:42.406Z,5.35
2019-05-18T16:49:11.080Z,2.90
2019-05-18T16:51:39.841Z,2.67
2019-05-18T16:54:08.628Z,3.40
2019-05-18T16:56:37.350Z,2.75
2019-05-18T16:59:06.046Z,2.83
2019-05-18T17:01:34.887Z,3.37
2019-05-18T17:04:03.640Z,3.27
2019-05-18T17:06:32.390Z,3.02
2019-05-18T17:09:01.128Z,3.00
2019-05-18T17:11:29.812Z,2.85
2019-05-18T17:13:58.508Z,2.80
2019-05-18T17:16:27.313Z,2.80
2019-05-18T17:18:56.078Z,3.22
2019-05-18T17:21:24.825Z,3.40
2019-05-18T17:23:53.759Z,3.12
2019-05-18T17:26:22.577Z,3.72
2019-05-18T17:28:51.330Z,3.20
2019-05-18T17:31:20.087Z,3.40
2019-05-18T17:33:48.826Z,3.33
2019-05-18T17:36:19.647Z,3.42
2019-05-18T17:38:47.984Z,3.52
2019-05-18T17:43:44.556Z,2.80
2019-05-18T17:48:41.289Z,3.05
2019-05-18T17:51:10.099Z,2.67
2019-05-18T17:53:38.806Z,3.15
2019-05-18T17:58:35.667Z,2.65
2019-05-18T18:03:32.494Z,2.80
2019-05-18T18:08:29.077Z,3.27
2019-05-18T18:10:57.816Z,5.72
2019-05-18T18:13:26.570Z,3.10
2019-05-18T18:18:23.309Z,4.10
2019-05-18T18:23:20.019Z,4.73
2019-05-18T18:25:48.775Z,3.70
2019-05-18T18:28:17.543Z,4.10
2019-05-18T18:30:46.390Z,10.80
2019-05-18T18:33:15.197Z,5.75
2019-05-18T18:35:43.910Z,5.87
2019-05-18T18:38:12.633Z,4.15
2019-05-18T18:40:41.457Z,4.80
2019-05-18T18:43:10.242Z,5.37
2019-05-18T18:45:38.895Z,5.05
2019-05-18T18:48:07.650Z,4.15
2019-05-18T18:50:36.410Z,5.58
2019-05-18T18:53:05.246Z,4.35
2019-05-18T18:55:34.046Z,4.28
2019-05-18T18:58:02.850Z,4.45
2019-05-18T19:00:31.673Z,3.92
2019-05-18T19:03:00.445Z,3.92
2019-05-18T19:05:29.122Z,3.65
2019-05-18T19:07:57.876Z,3.25
2019-05-18T19:10:26.676Z,3.37
2019-05-18T19:12:55.423Z,3.30
2019-05-18T19:15:24.198Z,3.65
2019-05-18T19:17:53.046Z,3.70
2019-05-18T19:20:21.790Z,4.20
2019-05-18T19:22:50.460Z,4.62
2019-05-18T19:25:19.418Z,4.22
2019-05-18T19:27:55.022Z,3.90
2019-05-18T19:30:18.841Z,5.78
2019-05-18T19:35:15.554Z,5.20
2019-05-18T19:37:44.256Z,3.90
2019-05-18T19:40:14.970Z,10.98
2019-05-18T19:42:43.658Z,4.42
2019-05-18T19:45:12.669Z,3.47
2019-05-18T19:47:41.356Z,3.45
2019-05-18T19:50:11.845Z,3.47
2019-05-18T19:52:40.590Z,3.20
2019-05-18T19:55:09.526Z,2.95
2019-05-18T19:57:38.275Z,3.55
2019-05-18T20:00:07.950Z,6.15
2019-05-18T20:02:36.582Z,5.12
2019-05-18T20:05:09.446Z,4.25
2019-05-18T20:07:38.456Z,7.40
2019-05-18T20:10:10.416Z,6.67
2019-05-18T20:12:39.099Z,7.17
2019-05-18T20:15:09.646Z,5.85
2019-05-18T20:17:38.695Z,3.92
2019-05-18T20:20:08.528Z,3.30
2019-05-18T20:22:37.289Z,3.10
2019-05-18T20:25:06.217Z,2.52
2019-05-18T20:27:34.895Z,3.22
2019-05-18T20:30:04.201Z,3.15
2019-05-18T20:32:32.967Z,4.00
2019-05-18T20:35:01.649Z,3.30
2019-05-18T20:37:30.447Z,2.92
2019-05-18T20:39:59.205Z,3.00
2019-05-18T20:42:27.942Z,3.17
2019-05-18T20:44:56.631Z,3.05
2019-05-18T20:47:25.464Z,2.98
2019-05-18T20:49:54.143Z,3.50
2019-05-18T20:52:22.879Z,8.48
2019-05-18T20:54:51.654Z,3.35
2019-05-18T20:57:20.391Z,3.47
2019-05-18T20:59:49.087Z,3.50
2019-05-18T21:02:17.912Z,3.90
2019-05-18T21:04:46.671Z,3.30
2019-05-18T21:07:15.484Z,3.22
2019-05-18T21:09:44.180Z,3.00
2019-05-18T21:12:12.916Z,3.62
2019-05-18T21:14:41.609Z,3.42
2019-05-18T21:17:10.427Z,2.87
2019-05-18T21:19:39.174Z,3.65
2019-05-18T21:22:07.992Z,3.70
2019-05-18T21:24:36.747Z,5.17
2019-05-18T21:27:05.487Z,3.45
2019-05-18T21:29:34.240Z,2.85
2019-05-18T21:32:03.058Z,2.90
2019-05-18T21:34:31.717Z,2.80
2019-05-18T21:37:00.467Z,3.33
2019-05-18T21:39:29.153Z,3.05
2019-05-18T21:41:57.900Z,3.20
2019-05-18T21:44:26.724Z,3.15
2019-05-18T21:46:55.432Z,3.85
2019-05-18T21:49:24.176Z,3.12
2019-05-18T21:51:52.845Z,2.92
2019-05-18T21:54:21.675Z,3.00
2019-05-18T21:56:50.423Z,3.30
2019-05-18T21:59:19.175Z,3.22
2019-05-18T22:01:47.937Z,3.90
2019-05-18T22:04:16.855Z,3.35
2019-05-18T22:06:45.613Z,3.75
2019-05-18T22:09:14.427Z,3.22
2019-05-18T22:11:43.038Z,3.08
2019-05-18T22:14:11.838Z,5.15
2019-05-18T22:16:40.585Z,2.98
2019-05-18T22:19:09.397Z,3.42
2019-05-18T22:21:38.081Z,3.10
2019-05-18T22:24:06.847Z,3.20
2019-05-18T22:26:35.518Z,3.02
2019-05-18T22:29:04.436Z,3.00
2019-05-18T22:31:33.189Z,3.30
2019-05-18T22:34:02.049Z,3.42
2019-05-18T22:36:30.800Z,3.17
2019-05-18T22:38:59.543Z,3.17
2019-05-18T22:41:28.237Z,3.62
2019-05-18T22:43:57.060Z,3.27
2019-05-18T22:46:25.792Z,3.33
2019-05-18T22:48:54.536Z,3.00
2019-05-18T22:51:23.211Z,2.90
2019-05-18T22:53:52.016Z,2.98
2019-05-18T22:56:20.765Z,3.40
2019-05-18T22:58:49.593Z,2.90
2019-05-18T23:01:18.254Z,2.65
2019-05-18T23:03:47.080Z,3.00
2019-05-18T23:06:15.760Z,2.90
2019-05-18T23:08:44.511Z,2.75
2019-05-18T23:11:13.330Z,2.65
2019-05-18T23:13:42.115Z,3.05
2019-05-18T23:16:10.875Z,3.47
2019-05-18T23:18:39.620Z,3.33
2019-05-18T23:21:08.482Z,2.92
2019-05-18T23:23:37.110Z,3.15
2019-05-18T23:26:05.921Z,3.10
2019-05-18T23:28:34.699Z,3.10
2019-05-18T23:31:03.419Z,3.22
2019-05-18T23:33:32.124Z,3.40
2019-05-18T23:36:00.910Z,3.10
2019-05-18T23:38:29.697Z,3.47
2019-05-18T23:40:58.463Z,2.90
2019-05-18T23:43:27.146Z,3.20
2019-05-18T23:45:56.258Z,3.08
2019-05-18T23:48:24.936Z,2.90
2019-05-18T23:50:53.667Z,3.20
2019-05-18T23:53:22.402Z,2.60
2019-05-18T23:55:51.169Z,3.55
2019-05-18T23:58:19.831Z,2.67
